createdAt,value
2017-10-31T07:17:12.927Z,1017.6
2017-10-31T07:18:14.321Z,1017.7
2017-10-31T07:19:15.680Z,1017.6
2017-10-31T07:20:17.072Z,1017.6
2017-10-31T07:21:18.452Z,1017.7
2017-10-31T07:22:19.828Z,1017.7
2017-10-31T07:23:21.212Z,1017.8
2017-10-31T07:24:22.708Z,1017.8
2017-10-31T07:25:24.180Z,1017.8
2017-10-31T07:26:25.597Z,1017.8
2017-10-31T07:27:27.088Z,1017.7
2017-10-31T07:28:28.565Z,1017.8
2017-10-31T07:29:30.034Z,1017.8
2017-10-31T07:30:31.512Z,1017.8
2017-10-31T07:31:32.977Z,1017.8
2017-10-31T07:32:34.387Z,1017.8
2017-10-31T07:33:35.816Z,1017.8
2017-10-31T07:34:37.251Z,1017.8
2017-10-31T07:35:38.667Z,1017.8
2017-10-31T07:36:40.072Z,1017.8
2017-10-31T07:37:41.539Z,1017.8
2017-10-31T07:38:42.959Z,1017.8
2017-10-31T07:39:44.371Z,1017.8
2017-10-31T07:40:45.885Z,1017.8
2017-10-31T07:41:47.816Z,1017.8
2017-10-31T07:42:49.271Z,1017.8
2017-10-31T07:43:50.720Z,1017.8
2017-10-31T07:44:52.189Z,1017.8
2017-10-31T07:45:53.792Z,1017.8
2017-10-31T07:46:55.206Z,1017.8
2017-10-31T07:47:56.730Z,1017.8
2017-10-31T07:48:58.223Z,1017.8
2017-10-31T07:49:59.646Z,1017.9
2017-10-31T07:51:01.085Z,1017.9
2017-10-31T07:52:02.666Z,1017.9
2017-10-31T07:53:04.106Z,1017.8
2017-10-31T07:54:05.639Z,1017.9
2017-10-31T07:55:07.385Z,1017.9
2017-10-31T07:56:09.021Z,1017.9
2017-10-31T07:57:10.576Z,1017.9
2017-10-31T07:58:11.946Z,1017.8
2017-10-31T07:59:13.325Z,1017.8
2017-10-31T08:00:14.765Z,1017.8
2017-10-31T08:01:16.241Z,1017.9
2017-10-31T08:02:17.701Z,1017.8
2017-10-31T08:03:19.119Z,1017.8
2017-10-31T08:04:20.654Z,1017.9
2017-10-31T08:05:22.246Z,1017.9
2017-10-31T08:06:23.976Z,1017.8
2017-10-31T08:07:25.532Z,1017.8
2017-10-31T08:08:26.956Z,1017.8
2017-10-31T08:09:28.454Z,1017.8
2017-10-31T08:10:29.927Z,1017.8
2017-10-31T08:11:31.366Z,1017.9
2017-10-31T08:12:32.824Z,1017.8
2017-10-31T08:13:34.241Z,1017.8
2017-10-31T08:14:35.671Z,1017.8
2017-10-31T08:15:37.150Z,1017.8
2017-10-31T08:16:38.598Z,1017.9
2017-10-31T08:17:40.097Z,1017.9
2017-10-31T08:18:41.969Z,1018.0
2017-10-31T08:19:43.424Z,1018.0
2017-10-31T08:20:44.886Z,1017.9
2017-10-31T08:21:46.354Z,1017.9
2017-10-31T08:22:47.847Z,1017.9
2017-10-31T08:23:49.354Z,1017.9
2017-10-31T08:24:50.778Z,1017.9
2017-10-31T08:25:52.243Z,1017.8
2017-10-31T08:26:53.755Z,1017.8
2017-10-31T08:27:55.211Z,1017.8
2017-10-31T08:28:56.628Z,1017.8
2017-10-31T08:29:58.249Z,1017.8
2017-10-31T08:30:59.728Z,1017.7
2017-10-31T08:32:01.226Z,1017.8
2017-10-31T08:33:02.692Z,1017.8
2017-10-31T08:34:04.243Z,1017.8
2017-10-31T08:35:05.668Z,1017.8
2017-10-31T08:36:07.278Z,1017.8
2017-10-31T08:37:08.733Z,1017.8
2017-10-31T08:38:10.188Z,1017.8
2017-10-31T08:39:11.681Z,1017.8
2017-10-31T08:40:13.178Z,1017.8
2017-10-31T08:41:14.674Z,1017.8
2017-10-31T08:42:16.353Z,1017.8
2017-10-31T08:43:18.185Z,1017.8
2017-10-31T08:44:19.926Z,1017.8
2017-10-31T08:45:21.742Z,1017.8
2017-10-31T08:46:23.276Z,1017.9
2017-10-31T08:47:24.797Z,1017.8
2017-10-31T08:48:26.339Z,1017.8
2017-10-31T08:49:28.045Z,1017.9
2017-10-31T08:50:29.691Z,1017.8
2017-10-31T08:51:31.138Z,1017.8
2017-10-31T08:52:32.738Z,1017.8
2017-10-31T08:53:34.186Z,1017.8
2017-10-31T08:54:35.698Z,1017.7
2017-10-31T08:55:37.166Z,1017.7
2017-10-31T08:56:38.618Z,1017.7
2017-10-31T08:57:40.092Z,1017.8
2017-10-31T08:58:41.544Z,1017.9
2017-10-31T08:59:43.140Z,1017.9
2017-10-31T09:00:44.548Z,1017.8
2017-10-31T09:01:45.978Z,1017.8
2017-10-31T09:02:47.459Z,1017.8
2017-10-31T09:03:48.980Z,1017.9
2017-10-31T09:04:50.643Z,1017.9
2017-10-31T09:05:52.399Z,1017.9
2017-10-31T09:06:54.144Z,1017.8
2017-10-31T09:07:55.560Z,1017.8
2017-10-31T09:08:57.004Z,1017.8
2017-10-31T09:09:58.475Z,1017.8
2017-10-31T09:10:59.917Z,1017.8
2017-10-31T09:12:01.394Z,1017.7
2017-10-31T09:13:03.050Z,1017.8
2017-10-31T09:14:04.681Z,1017.8
2017-10-31T09:15:06.120Z,1017.8
2017-10-31T09:16:07.560Z,1017.8
2017-10-31T09:17:08.975Z,1017.7
2017-10-31T09:18:10.425Z,1017.8
2017-10-31T09:19:11.890Z,1017.8
2017-10-31T09:20:13.342Z,1017.8
2017-10-31T09:21:14.765Z,1017.7
2017-10-31T09:22:16.197Z,1017.8
2017-10-31T09:23:18.026Z,1017.8
2017-10-31T09:24:19.697Z,1017.8
2017-10-31T09:25:21.206Z,1017.9
2017-10-31T09:26:22.672Z,1017.9
2017-10-31T09:27:24.163Z,1017.8
2017-10-31T09:28:25.608Z,1017.9
2017-10-31T09:29:27.006Z,1017.9
2017-10-31T09:30:28.680Z,1017.9
2017-10-31T09:31:30.340Z,1017.9
2017-10-31T09:32:31.839Z,1017.9
2017-10-31T09:33:33.299Z,1017.9
2017-10-31T09:34:34.724Z,1017.9
2017-10-31T09:35:36.156Z,1017.8
2017-10-31T09:36:37.605Z,1017.8
2017-10-31T09:37:39.263Z,1017.9
2017-10-31T09:38:40.663Z,1017.9
2017-10-31T09:39:42.084Z,1017.8
2017-10-31T09:40:43.562Z,1017.8
2017-10-31T09:41:45.073Z,1017.8
2017-10-31T09:42:46.534Z,1017.8
2017-10-31T09:43:48.034Z,1017.8
2017-10-31T09:44:49.411Z,1017.8
2017-10-31T09:45:50.794Z,1017.8
2017-10-31T09:46:52.204Z,1017.8
2017-10-31T09:47:53.666Z,1017.8
2017-10-31T09:48:55.116Z,1017.8
2017-10-31T09:49:56.531Z,1017.8
2017-10-31T09:50:58.031Z,1017.7
2017-10-31T09:51:59.439Z,1017.7
2017-10-31T09:53:00.928Z,1017.7
2017-10-31T09:54:02.345Z,1017.7
2017-10-31T09:55:04.066Z,1017.8
2017-10-31T09:56:05.531Z,1017.7
2017-10-31T09:57:06.994Z,1017.7
2017-10-31T09:58:08.473Z,1017.7
2017-10-31T09:59:10.006Z,1017.7
2017-10-31T10:00:11.746Z,1017.7
2017-10-31T10:01:13.513Z,1017.6
2017-10-31T10:02:15.250Z,1017.6
2017-10-31T10:03:16.917Z,1017.6
2017-10-31T10:04:18.678Z,1017.6
2017-10-31T10:05:20.379Z,1017.6
2017-10-31T10:06:21.882Z,1017.7
2017-10-31T10:07:23.391Z,1017.6
2017-10-31T10:08:24.884Z,1017.6
2017-10-31T10:09:26.373Z,1017.7
2017-10-31T10:10:27.799Z,1017.6
2017-10-31T10:11:29.297Z,1017.6
2017-10-31T10:12:30.749Z,1017.7
2017-10-31T10:13:32.194Z,1017.7
2017-10-31T10:14:33.647Z,1017.6
2017-10-31T10:15:35.117Z,1017.6
2017-10-31T10:16:36.538Z,1017.5
2017-10-31T10:17:38.012Z,1017.6
2017-10-31T10:18:39.435Z,1017.6
2017-10-31T10:19:40.842Z,1017.5
2017-10-31T10:20:42.285Z,1017.6
2017-10-31T10:21:43.759Z,1017.6
2017-10-31T10:22:45.217Z,1017.5
2017-10-31T10:23:46.645Z,1017.6
2017-10-31T10:24:48.132Z,1017.5
2017-10-31T10:25:49.725Z,1017.5
2017-10-31T10:26:51.355Z,1017.5
2017-10-31T10:27:52.763Z,1017.5
2017-10-31T10:28:54.165Z,1017.5
2017-10-31T10:29:55.653Z,1017.5
2017-10-31T10:30:57.084Z,1017.5
2017-10-31T10:31:58.621Z,1017.5
2017-10-31T10:33:00.067Z,1017.5
2017-10-31T10:34:01.503Z,1017.5
2017-10-31T10:35:03.028Z,1017.5
2017-10-31T10:36:04.449Z,1017.5
2017-10-31T10:37:05.904Z,1017.4
2017-10-31T10:38:07.563Z,1017.5
2017-10-31T10:39:09.009Z,1017.5
2017-10-31T10:40:10.440Z,1017.5
2017-10-31T10:41:11.886Z,1017.5
2017-10-31T10:42:13.375Z,1017.5
2017-10-31T10:43:14.805Z,1017.5
2017-10-31T10:44:16.489Z,1017.5
2017-10-31T10:45:17.929Z,1017.5
2017-10-31T10:46:19.363Z,1017.5
2017-10-31T10:47:20.872Z,1017.5
2017-10-31T10:48:22.319Z,1017.5
2017-10-31T10:49:23.762Z,1017.4
2017-10-31T10:50:25.436Z,1017.5
2017-10-31T10:51:26.930Z,1017.4
2017-10-31T10:52:28.463Z,1017.5
2017-10-31T10:53:29.985Z,1017.5
2017-10-31T10:54:31.473Z,1017.5
2017-10-31T10:55:32.931Z,1017.5
2017-10-31T10:56:34.404Z,1017.5
2017-10-31T10:57:35.866Z,1017.5
2017-10-31T10:58:37.307Z,1017.4
2017-10-31T10:59:38.775Z,1017.4
2017-10-31T11:00:40.203Z,1017.4
2017-10-31T11:01:41.661Z,1017.4
2017-10-31T11:02:43.197Z,1017.4
2017-10-31T11:03:44.605Z,1017.4
2017-10-31T11:04:46.016Z,1017.3
2017-10-31T11:05:47.504Z,1017.3
2017-10-31T11:06:48.984Z,1017.3
2017-10-31T11:07:50.515Z,1017.3
2017-10-31T11:08:52.260Z,1017.2
2017-10-31T11:09:53.908Z,1017.2
2017-10-31T11:10:55.333Z,1017.2
2017-10-31T11:11:56.756Z,1017.2
2017-10-31T11:12:58.419Z,1017.2
2017-10-31T11:13:59.873Z,1017.2
2017-10-31T11:15:01.271Z,1017.1
2017-10-31T11:16:02.811Z,1017.1
2017-10-31T11:17:04.196Z,1017.1
2017-10-31T11:18:05.844Z,1017.1
2017-10-31T11:19:07.296Z,1017.1
2017-10-31T11:20:08.814Z,1017.1
2017-10-31T11:21:10.269Z,1017.1
2017-10-31T11:22:11.925Z,1017.1
2017-10-31T11:23:13.625Z,1017.1
2017-10-31T11:24:15.039Z,1017.1
2017-10-31T11:25:16.457Z,1017.1
2017-10-31T11:26:17.852Z,1017.1
2017-10-31T11:27:19.307Z,1017.1
2017-10-31T11:28:20.756Z,1017.2
2017-10-31T11:29:22.209Z,1017.1
2017-10-31T11:30:23.673Z,1017.1
2017-10-31T11:31:25.110Z,1017.1
2017-10-31T11:32:26.540Z,1017.1
2017-10-31T11:33:28.178Z,1017.2
2017-10-31T11:34:29.756Z,1017.1
2017-10-31T11:35:31.330Z,1017.1
2017-10-31T11:36:32.829Z,1017.1
2017-10-31T11:37:34.582Z,1017.1
2017-10-31T11:38:36.005Z,1017.1
2017-10-31T11:39:37.438Z,1017.1
2017-10-31T11:40:38.875Z,1017.1
2017-10-31T11:41:40.364Z,1017.1
2017-10-31T11:42:41.808Z,1017.1
2017-10-31T11:43:43.303Z,1017.0
2017-10-31T11:44:44.741Z,1017.0
2017-10-31T11:45:46.345Z,1017.0
2017-10-31T11:46:47.780Z,1017.0
2017-10-31T11:47:49.271Z,1016.9
2017-10-31T11:48:50.721Z,1016.9
2017-10-31T11:49:52.170Z,1016.9
2017-10-31T11:50:53.733Z,1016.9
2017-10-31T11:51:55.151Z,1016.9
2017-10-31T11:52:56.643Z,1016.9
2017-10-31T11:53:58.420Z,1016.9
2017-10-31T11:54:59.930Z,1016.9
2017-10-31T11:56:01.695Z,1016.9
2017-10-31T11:57:03.270Z,1016.9
2017-10-31T11:58:04.788Z,1016.9
2017-10-31T11:59:06.335Z,1016.9
2017-10-31T12:00:08.099Z,1016.9
2017-10-31T12:01:09.877Z,1016.9
2017-10-31T12:02:11.607Z,1016.9
2017-10-31T12:03:13.057Z,1016.9
2017-10-31T12:04:14.552Z,1016.8
2017-10-31T12:05:16.107Z,1016.9
2017-10-31T12:06:17.572Z,1016.8
2017-10-31T12:07:19.076Z,1016.9
2017-10-31T12:08:20.555Z,1016.8
2017-10-31T12:09:22.062Z,1016.8
2017-10-31T12:10:23.589Z,1016.8
2017-10-31T12:11:25.031Z,1016.8
2017-10-31T12:12:26.463Z,1016.7
2017-10-31T12:13:27.977Z,1016.7
2017-10-31T12:14:29.455Z,1016.7
2017-10-31T12:15:31.022Z,1016.7
2017-10-31T12:16:32.493Z,1016.7
2017-10-31T12:17:33.929Z,1016.7
2017-10-31T12:18:35.409Z,1016.7
2017-10-31T12:19:36.892Z,1016.7
2017-10-31T12:20:38.375Z,1016.7
2017-10-31T12:21:39.859Z,1016.7
2017-10-31T12:22:41.317Z,1016.7
2017-10-31T12:23:42.781Z,1016.6
2017-10-31T12:24:44.271Z,1016.7
2017-10-31T12:25:45.713Z,1016.6
2017-10-31T12:26:47.200Z,1016.6
2017-10-31T12:27:48.676Z,1016.6
2017-10-31T12:28:50.172Z,1016.6
2017-10-31T12:29:51.597Z,1016.6
2017-10-31T12:30:53.132Z,1016.6
2017-10-31T12:31:54.633Z,1016.6
2017-10-31T12:32:56.102Z,1016.6
2017-10-31T12:33:57.649Z,1016.6
2017-10-31T12:34:59.413Z,1016.6
2017-10-31T12:36:01.078Z,1016.6
2017-10-31T12:37:02.746Z,1016.6
2017-10-31T12:38:04.458Z,1016.6
2017-10-31T12:39:06.254Z,1016.6
2017-10-31T12:40:07.756Z,1016.6
2017-10-31T12:41:09.313Z,1016.6
2017-10-31T12:42:10.855Z,1016.6
2017-10-31T12:43:12.334Z,1016.6
2017-10-31T12:44:13.918Z,1016.6
2017-10-31T12:45:15.946Z,1016.6
2017-10-31T12:46:17.785Z,1016.7
2017-10-31T12:47:19.238Z,1016.7
2017-10-31T12:48:21.233Z,1016.7
2017-10-31T12:49:22.935Z,1016.7
2017-10-31T12:50:24.694Z,1016.7
2017-10-31T12:51:26.208Z,1016.7
2017-10-31T12:52:27.673Z,1016.7
2017-10-31T12:53:29.203Z,1016.6
2017-10-31T12:54:30.863Z,1016.6
2017-10-31T12:55:32.529Z,1016.6
2017-10-31T12:56:34.143Z,1016.6
2017-10-31T12:57:35.916Z,1016.6
2017-10-31T12:58:37.654Z,1016.6
2017-10-31T12:59:39.599Z,1016.6
2017-10-31T13:00:41.281Z,1016.6
2017-10-31T13:01:42.761Z,1016.6
2017-10-31T13:02:44.364Z,1016.6
2017-10-31T13:03:45.856Z,1016.6
2017-10-31T13:04:47.350Z,1016.6
2017-10-31T13:05:49.530Z,1016.5
2017-10-31T13:06:50.767Z,1016.5
2017-10-31T13:07:52.221Z,1016.5
2017-10-31T13:08:53.744Z,1016.4
2017-10-31T13:09:55.375Z,1016.4
2017-10-31T13:10:56.950Z,1016.4
2017-10-31T13:11:58.431Z,1016.4
2017-10-31T13:12:59.887Z,1016.4
2017-10-31T13:14:01.343Z,1016.4
2017-10-31T13:15:02.825Z,1016.4
2017-10-31T13:16:04.301Z,1016.4
2017-10-31T13:17:05.775Z,1016.4
2017-10-31T13:18:07.349Z,1016.4
2017-10-31T13:19:08.905Z,1016.4
2017-10-31T13:20:10.364Z,1016.4
2017-10-31T13:21:11.883Z,1016.3
2017-10-31T13:22:13.370Z,1016.4
2017-10-31T13:23:14.881Z,1016.4
2017-10-31T13:24:16.602Z,1016.3
2017-10-31T13:25:18.310Z,1016.3
2017-10-31T13:26:19.791Z,1016.3
2017-10-31T13:27:21.318Z,1016.3
2017-10-31T13:28:22.834Z,1016.3
2017-10-31T13:29:24.333Z,1016.3
2017-10-31T13:30:25.831Z,1016.3
2017-10-31T13:31:27.346Z,1016.3
2017-10-31T13:32:28.946Z,1016.3
2017-10-31T13:33:30.625Z,1016.3
2017-10-31T13:34:32.307Z,1016.3
2017-10-31T13:35:33.991Z,1016.3
2017-10-31T13:36:35.476Z,1016.3
2017-10-31T13:37:36.933Z,1016.3
2017-10-31T13:38:38.412Z,1016.3
2017-10-31T13:39:40.102Z,1016.2
2017-10-31T13:40:41.598Z,1016.2
2017-10-31T13:41:43.110Z,1016.3
2017-10-31T13:42:44.573Z,1016.3
2017-10-31T13:43:46.023Z,1016.3
2017-10-31T13:44:47.529Z,1016.3
2017-10-31T13:45:49.066Z,1016.2
2017-10-31T13:46:50.776Z,1016.2
2017-10-31T13:47:52.311Z,1016.2
2017-10-31T13:48:53.783Z,1016.2
2017-10-31T13:49:55.346Z,1016.2
2017-10-31T13:50:56.815Z,1016.2
2017-10-31T13:51:58.381Z,1016.1
2017-10-31T13:53:00.012Z,1016.1
2017-10-31T13:54:01.776Z,1016.1
2017-10-31T13:55:03.306Z,1016.1
2017-10-31T13:56:04.789Z,1016.1
2017-10-31T13:57:06.344Z,1016.1
2017-10-31T13:58:07.840Z,1016.1
2017-10-31T13:59:09.426Z,1016.2
2017-10-31T14:00:10.865Z,1016.1
2017-10-31T14:01:12.459Z,1016.1
2017-10-31T14:02:14.183Z,1016.1
2017-10-31T14:03:16.006Z,1016.1
2017-10-31T14:04:17.713Z,1016.1
2017-10-31T14:05:19.213Z,1016.1
2017-10-31T14:06:20.741Z,1016.0
2017-10-31T14:07:22.244Z,1016.1
2017-10-31T14:08:23.731Z,1016.0
2017-10-31T14:09:25.247Z,1016.0
2017-10-31T14:10:26.628Z,1016.0
2017-10-31T14:11:28.101Z,1016.0
2017-10-31T14:12:29.582Z,1016.0
2017-10-31T14:13:31.136Z,1016.0
2017-10-31T14:14:32.914Z,1016.0
2017-10-31T14:15:34.425Z,1015.9
2017-10-31T14:16:35.935Z,1015.9
2017-10-31T14:17:37.478Z,1015.9
2017-10-31T14:18:39.107Z,1016.0
2017-10-31T14:19:40.704Z,1016.0
2017-10-31T14:20:42.409Z,1015.9
2017-10-31T14:21:44.260Z,1015.9
2017-10-31T14:22:45.999Z,1015.8
2017-10-31T14:23:47.718Z,1015.9
2017-10-31T14:24:49.505Z,1015.8
2017-10-31T14:25:51.062Z,1015.8
2017-10-31T14:26:52.498Z,1015.8
2017-10-31T14:27:54.021Z,1015.8
2017-10-31T14:28:55.456Z,1015.8
2017-10-31T14:29:56.986Z,1015.8
2017-10-31T14:30:58.445Z,1015.8
2017-10-31T14:31:59.894Z,1015.8
2017-10-31T14:33:01.350Z,1015.7
2017-10-31T14:34:02.783Z,1015.7
2017-10-31T14:35:04.218Z,1015.7
2017-10-31T14:36:05.721Z,1015.7
2017-10-31T14:37:07.134Z,1015.7
2017-10-31T14:38:08.629Z,1015.7
2017-10-31T14:39:10.156Z,1015.7
2017-10-31T14:40:11.621Z,1015.7
2017-10-31T14:41:13.128Z,1015.7
2017-10-31T14:42:14.651Z,1015.6
2017-10-31T14:43:16.181Z,1015.6
2017-10-31T14:44:17.913Z,1015.6
2017-10-31T14:45:20.156Z,1015.6
2017-10-31T14:46:22.579Z,1015.5
2017-10-31T14:47:24.358Z,1015.6
2017-10-31T14:48:26.398Z,1015.5
2017-10-31T14:49:28.516Z,1015.5
2017-10-31T14:50:30.414Z,1015.6
2017-10-31T14:51:32.868Z,1015.6
2017-10-31T14:52:35.868Z,1015.5
2017-10-31T14:53:38.403Z,1015.6
2017-10-31T14:54:40.356Z,1015.6
2017-10-31T14:55:42.123Z,1015.5
2017-10-31T14:56:43.997Z,1015.5
2017-10-31T14:57:45.729Z,1015.5
2017-10-31T14:58:47.171Z,1015.5
2017-10-31T14:59:48.684Z,1015.5
2017-10-31T15:00:50.164Z,1015.5
2017-10-31T15:01:51.813Z,1015.5
2017-10-31T15:02:53.695Z,1015.4
2017-10-31T15:03:55.223Z,1015.5
2017-10-31T15:04:56.895Z,1015.5
2017-10-31T15:05:58.650Z,1015.4
2017-10-31T15:07:00.459Z,1015.4
2017-10-31T15:08:02.312Z,1015.4
2017-10-31T15:09:04.169Z,1015.3
2017-10-31T15:10:06.092Z,1015.4
2017-10-31T15:11:07.592Z,1015.4
2017-10-31T15:12:09.338Z,1015.3
2017-10-31T15:13:10.787Z,1015.3
2017-10-31T15:14:12.291Z,1015.3
2017-10-31T15:15:14.045Z,1015.3
2017-10-31T15:16:15.532Z,1015.3
2017-10-31T15:17:16.995Z,1015.3
2017-10-31T15:18:18.492Z,1015.3
2017-10-31T15:19:19.991Z,1015.3
2017-10-31T15:20:21.495Z,1015.3
2017-10-31T15:21:23.036Z,1015.3
2017-10-31T15:22:24.508Z,1015.3
2017-10-31T15:23:25.973Z,1015.4
2017-10-31T15:24:27.490Z,1015.3
2017-10-31T15:25:28.957Z,1015.3
2017-10-31T15:26:30.490Z,1015.3
2017-10-31T15:27:31.947Z,1015.3
2017-10-31T15:28:33.427Z,1015.3
2017-10-31T15:29:34.953Z,1015.3
2017-10-31T15:30:36.384Z,1015.3
2017-10-31T15:31:37.843Z,1015.2
2017-10-31T15:32:39.303Z,1015.2
2017-10-31T15:33:40.754Z,1015.2
2017-10-31T15:34:42.222Z,1015.2
2017-10-31T15:35:43.697Z,1015.2
2017-10-31T15:36:45.176Z,1015.2
2017-10-31T15:37:46.628Z,1015.2
2017-10-31T15:38:48.071Z,1015.2
2017-10-31T15:39:49.627Z,1015.1
2017-10-31T15:40:51.108Z,1015.1
2017-10-31T15:41:52.578Z,1015.1
2017-10-31T15:42:54.018Z,1015.1
2017-10-31T15:43:55.446Z,1015.1
2017-10-31T15:44:56.889Z,1015.1
2017-10-31T15:45:58.340Z,1015.1
2017-10-31T15:46:59.770Z,1015.1
2017-10-31T15:48:01.194Z,1015.1
2017-10-31T15:49:02.624Z,1015.1
2017-10-31T15:50:04.060Z,1015.1
2017-10-31T15:51:05.469Z,1015.1
2017-10-31T15:52:06.865Z,1015.1
2017-10-31T15:53:08.340Z,1015.1
2017-10-31T15:54:09.777Z,1015.1
2017-10-31T15:55:11.250Z,1015.0
2017-10-31T15:56:12.704Z,1015.0
2017-10-31T15:57:14.185Z,1015.0
2017-10-31T15:58:15.614Z,1015.0
2017-10-31T15:59:17.088Z,1015.1
2017-10-31T16:00:18.490Z,1015.1
2017-10-31T16:01:19.940Z,1015.0
2017-10-31T16:02:21.341Z,1015.0
2017-10-31T16:03:22.783Z,1015.1
2017-10-31T16:04:24.215Z,1015.0
2017-10-31T16:05:25.654Z,1015.1
2017-10-31T16:06:27.049Z,1015.1
2017-10-31T16:07:28.516Z,1015.1
2017-10-31T16:08:30.060Z,1015.1
2017-10-31T16:09:31.522Z,1015.1
2017-10-31T16:10:32.953Z,1015.1
2017-10-31T16:11:34.414Z,1015.1
2017-10-31T16:12:35.793Z,1015.1
2017-10-31T16:13:37.295Z,1015.1
2017-10-31T16:14:38.776Z,1015.0
2017-10-31T16:15:40.346Z,1015.1
2017-10-31T16:16:41.841Z,1015.1
2017-10-31T16:17:43.315Z,1015.0
2017-10-31T16:18:44.812Z,1015.1
2017-10-31T16:19:46.245Z,1015.0
2017-10-31T16:20:47.718Z,1015.0
2017-10-31T16:21:49.175Z,1015.0
2017-10-31T16:22:50.594Z,1015.1
2017-10-31T16:23:52.058Z,1015.0
2017-10-31T16:24:53.488Z,1015.0
2017-10-31T16:25:55.000Z,1015.1
2017-10-31T16:26:56.490Z,1015.0
2017-10-31T16:27:57.955Z,1015.0
2017-10-31T16:28:59.422Z,1015.0
2017-10-31T16:30:00.896Z,1015.1
2017-10-31T16:31:02.651Z,1015.0
2017-10-31T16:32:04.401Z,1015.0
2017-10-31T16:33:06.196Z,1015.0
2017-10-31T16:34:07.917Z,1015.0
2017-10-31T16:35:09.726Z,1015.0
2017-10-31T16:36:11.267Z,1015.0
2017-10-31T16:37:12.894Z,1015.0
2017-10-31T16:38:14.701Z,1015.1
2017-10-31T16:39:16.456Z,1015.0
2017-10-31T16:40:18.137Z,1015.0
2017-10-31T16:41:19.872Z,1015.0
2017-10-31T16:42:21.578Z,1015.0
2017-10-31T16:43:23.055Z,1015.1
2017-10-31T16:44:24.544Z,1015.0
2017-10-31T16:45:26.235Z,1015.0
2017-10-31T16:46:27.727Z,1015.1
2017-10-31T16:47:29.188Z,1015.1
2017-10-31T16:48:30.901Z,1015.1
2017-10-31T16:49:32.546Z,1015.1
2017-10-31T16:50:34.229Z,1015.0
2017-10-31T16:51:35.969Z,1015.1
2017-10-31T16:52:37.659Z,1015.1
2017-10-31T16:53:39.293Z,1015.1
2017-10-31T16:54:41.051Z,1015.1
2017-10-31T16:55:42.797Z,1015.1
2017-10-31T16:56:44.581Z,1015.1
2017-10-31T16:57:46.330Z,1015.0
2017-10-31T16:58:47.952Z,1015.0
2017-10-31T16:59:49.751Z,1015.1
2017-10-31T17:00:51.490Z,1015.1
2017-10-31T17:01:53.086Z,1015.1
2017-10-31T17:02:54.804Z,1015.1
2017-10-31T17:03:56.540Z,1015.1
2017-10-31T17:04:58.304Z,1015.1
2017-10-31T17:05:59.852Z,1015.1
2017-10-31T17:07:01.361Z,1015.1
2017-10-31T17:08:03.139Z,1015.2
2017-10-31T17:09:04.951Z,1015.2
2017-10-31T17:10:06.675Z,1015.1
2017-10-31T17:11:08.420Z,1015.1
2017-10-31T17:12:10.219Z,1015.1
2017-10-31T17:13:11.967Z,1015.2
2017-10-31T17:14:13.488Z,1015.1
2017-10-31T17:15:15.020Z,1015.1
2017-10-31T17:16:16.721Z,1015.2
2017-10-31T17:17:18.416Z,1015.1
2017-10-31T17:18:20.296Z,1015.2
2017-10-31T17:19:22.059Z,1015.1
2017-10-31T17:20:23.532Z,1015.1
2017-10-31T17:21:25.536Z,1015.1
2017-10-31T17:22:26.968Z,1015.1
2017-10-31T17:23:28.800Z,1015.1
2017-10-31T17:24:30.504Z,1015.1
2017-10-31T17:25:31.998Z,1015.1
2017-10-31T17:26:33.801Z,1015.0
2017-10-31T17:27:35.272Z,1015.0
2017-10-31T17:28:37.002Z,1015.0
2017-10-31T17:29:38.752Z,1015.0
2017-10-31T17:30:40.276Z,1015.0
2017-10-31T17:31:41.978Z,1015.0
2017-10-31T17:32:43.752Z,1015.0
2017-10-31T17:33:45.440Z,1015.0
2017-10-31T17:34:47.103Z,1015.0
2017-10-31T17:35:48.607Z,1015.0
2017-10-31T17:36:50.129Z,1015.0
2017-10-31T17:37:51.544Z,1015.1
2017-10-31T17:38:53.088Z,1015.1
2017-10-31T17:39:54.613Z,1015.1
2017-10-31T17:40:56.112Z,1015.1
2017-10-31T17:41:57.875Z,1015.1
2017-10-31T17:42:59.713Z,1015.1
2017-10-31T17:44:01.444Z,1015.1
2017-10-31T17:45:03.740Z,1015.1
2017-10-31T17:46:05.337Z,1015.1
2017-10-31T17:47:07.165Z,1015.1
2017-10-31T17:48:08.942Z,1015.1
2017-10-31T17:49:10.780Z,1015.1
2017-10-31T17:50:12.497Z,1015.1
2017-10-31T17:51:14.309Z,1015.1
2017-10-31T17:52:16.026Z,1015.1
2017-10-31T17:53:17.774Z,1015.1
2017-10-31T17:54:19.249Z,1015.1
2017-10-31T17:55:20.742Z,1015.1
2017-10-31T17:56:22.456Z,1015.1
2017-10-31T17:57:24.153Z,1015.0
2017-10-31T17:58:26.007Z,1015.0
2017-10-31T17:59:27.485Z,1015.0
2017-10-31T18:00:29.289Z,1015.0
2017-10-31T18:01:31.195Z,1015.0
2017-10-31T18:02:32.851Z,1015.1
2017-10-31T18:03:34.548Z,1015.1
2017-10-31T18:04:36.286Z,1015.1
2017-10-31T18:05:37.932Z,1015.0
2017-10-31T18:06:39.591Z,1015.0
2017-10-31T18:07:41.430Z,1015.0
2017-10-31T18:08:43.202Z,1015.0
2017-10-31T18:09:44.858Z,1014.9
2017-10-31T18:10:46.333Z,1014.9
2017-10-31T18:11:47.934Z,1014.9
2017-10-31T18:12:49.578Z,1014.9
2017-10-31T18:13:51.311Z,1014.8
2017-10-31T18:14:53.049Z,1014.8
2017-10-31T18:15:54.545Z,1014.9
2017-10-31T18:16:56.333Z,1014.8
2017-10-31T18:17:58.116Z,1014.8
2017-10-31T18:18:59.844Z,1014.8
2017-10-31T18:20:01.607Z,1014.8
2017-10-31T18:21:03.297Z,1014.8
2017-10-31T18:22:04.776Z,1014.8
2017-10-31T18:23:06.315Z,1014.8
2017-10-31T18:24:08.012Z,1014.8
2017-10-31T18:25:09.692Z,1014.8
2017-10-31T18:26:11.160Z,1014.8
2017-10-31T18:27:12.903Z,1014.8
2017-10-31T18:28:14.341Z,1014.8
2017-10-31T18:29:15.804Z,1014.8
2017-10-31T18:30:17.292Z,1014.8
2017-10-31T18:31:19.029Z,1014.7
2017-10-31T18:32:20.487Z,1014.8
2017-10-31T18:33:22.283Z,1014.7
2017-10-31T18:34:23.681Z,1014.8
2017-10-31T18:35:25.431Z,1014.8
2017-10-31T18:36:26.919Z,1014.7
2017-10-31T18:37:28.626Z,1014.8
2017-10-31T18:38:30.327Z,1014.7
2017-10-31T18:39:32.037Z,1014.7
2017-10-31T18:40:33.645Z,1014.7
2017-10-31T18:41:35.390Z,1014.7
2017-10-31T18:42:36.949Z,1014.7
2017-10-31T18:43:38.398Z,1014.6
2017-10-31T18:44:40.102Z,1014.7
2017-10-31T18:45:41.799Z,1014.6
2017-10-31T18:46:43.477Z,1014.6
2017-10-31T18:47:45.173Z,1014.6
2017-10-31T18:48:46.890Z,1014.6
2017-10-31T18:49:48.536Z,1014.6
2017-10-31T18:50:50.228Z,1014.6
2017-10-31T18:51:51.692Z,1014.6
2017-10-31T18:52:53.355Z,1014.5
2017-10-31T18:53:55.090Z,1014.5
2017-10-31T18:54:56.772Z,1014.5
2017-10-31T18:55:58.474Z,1014.5
2017-10-31T18:57:00.194Z,1014.5
2017-10-31T18:58:01.941Z,1014.5
2017-10-31T18:59:03.745Z,1014.5
2017-10-31T19:00:05.275Z,1014.5
2017-10-31T19:01:07.033Z,1014.5
2017-10-31T19:02:08.666Z,1014.5
2017-10-31T19:03:10.408Z,1014.5
2017-10-31T19:04:12.160Z,1014.5
2017-10-31T19:05:13.676Z,1014.5
2017-10-31T19:06:15.128Z,1014.5
2017-10-31T19:07:16.546Z,1014.4
2017-10-31T19:08:18.161Z,1014.4
2017-10-31T19:09:19.596Z,1014.4
2017-10-31T19:10:21.375Z,1014.4
2017-10-31T19:11:23.067Z,1014.4
2017-10-31T19:12:24.771Z,1014.3
2017-10-31T19:13:26.507Z,1014.3
2017-10-31T19:14:28.104Z,1014.3
2017-10-31T19:15:29.600Z,1014.3
2017-10-31T19:16:31.278Z,1014.3
2017-10-31T19:17:32.725Z,1014.3
2017-10-31T19:18:34.198Z,1014.3
2017-10-31T19:19:35.941Z,1014.3
2017-10-31T19:20:37.672Z,1014.2
2017-10-31T19:21:39.358Z,1014.2
2017-10-31T19:22:40.843Z,1014.2
2017-10-31T19:23:42.546Z,1014.2
2017-10-31T19:24:44.199Z,1014.3
2017-10-31T19:25:46.060Z,1014.2
2017-10-31T19:26:47.782Z,1014.2
2017-10-31T19:27:49.580Z,1014.2
2017-10-31T19:28:51.324Z,1014.3
2017-10-31T19:29:53.075Z,1014.3
2017-10-31T19:30:54.846Z,1014.3
2017-10-31T19:31:56.490Z,1014.2
2017-10-31T19:32:58.158Z,1014.3
2017-10-31T19:33:59.808Z,1014.3
2017-10-31T19:35:01.278Z,1014.2
2017-10-31T19:36:02.691Z,1014.3
2017-10-31T19:37:04.550Z,1014.2
2017-10-31T19:38:06.275Z,1014.2
2017-10-31T19:39:07.956Z,1014.2
2017-10-31T19:40:09.561Z,1014.2
2017-10-31T19:41:11.176Z,1014.2
2017-10-31T19:42:12.942Z,1014.2
2017-10-31T19:43:14.741Z,1014.2
2017-10-31T19:44:16.479Z,1014.2
2017-10-31T19:45:17.962Z,1014.2
2017-10-31T19:46:19.659Z,1014.2
2017-10-31T19:47:21.333Z,1014.2
2017-10-31T19:48:23.095Z,1014.2
2017-10-31T19:49:24.559Z,1014.2
2017-10-31T19:50:26.044Z,1014.1
2017-10-31T19:51:27.495Z,1014.1
2017-10-31T19:52:29.112Z,1014.1
2017-10-31T19:53:30.814Z,1014.1
2017-10-31T19:54:32.491Z,1014.0
2017-10-31T19:55:34.237Z,1014.0
2017-10-31T19:56:35.944Z,1014.1
2017-10-31T19:57:37.369Z,1014.1
2017-10-31T19:58:38.809Z,1014.0
2017-10-31T19:59:40.587Z,1014.0
2017-10-31T20:00:42.335Z,1014.0
2017-10-31T20:01:44.063Z,1014.1
2017-10-31T20:02:45.848Z,1014.0
2017-10-31T20:03:47.368Z,1014.1
2017-10-31T20:04:49.019Z,1014.1